Mc Cutchenville, Ohio
Current Conditions -  °F | °C
As of 6:09 PM on Wednesday 22 Oct 2014 (Local Time) from KFDY Reporting Station
Broken Clouds Broken Clouds  
Wind Chill: 51°   Ceiling: 3000
Heat Index: 51°   Visibility: 10mi
Dew Point: 40°   Wind: 5mph
Humidity: 66%   Direction: 310°NW
Pressure: 30.27"   Gusts: NA
Location:  40.988°N, 83.2626°W
Report Text: KFDY 222209Z AUTO 31004KT 10SM BKN030 11/04 A3027 RMK AO2 T01060044
Loading
Personal Weather Stations






























Interactive Weather Map
Tropical Storm Tracking
New forecast layout! Learn more

10-Day Weather Forecast

Advertisements
Track Severe Weather on mobile